Time;durP1;ratioP1;P1;durP2;ratioP2;P2;SDS_P1;SDS_P2;PMS_P1;PMS_P2;Temp;Humidity;BMP_temperature;BMP_pressure;BME280_temperature;BME280_humidity;BME280_pressure;Samples;Min_cycle;Max_cycle;Signal;HPM_P1;HPM_P2
2021/06/14 00:02:25;;;;;;;7.55;2.65;;;;;;;12.13;78.36;100900.47;1693317;83;25852;-84
2021/06/14 00:04:52;;;;;;;6.72;2.47;;;;;;;12.13;78.33;100899.66;1698706;82;25713;-85
2021/06/14 00:07:19;;;;;;;7.42;2.27;;;;;;;12.10;78.30;100900.80;1695330;82;25659;-84
2021/06/14 00:09:46;;;;;;;10.15;2.67;;;;;;;12.06;78.52;100903.89;1694451;82;25659;-84
2021/06/14 00:12:20;;;;;;;6.80;2.67;;;;;;;12.02;78.43;100896.85;1704414;82;25630;-85
2021/06/14 00:14:41;;;;;;;;;;;;;;;11.98;78.42;100894.23;1700045;82;26467;-84
2021/06/14 00:17:07;;;;;;;14.33;3.07;;;;;;;11.96;78.52;100901.43;1692542;82;31981;-84
2021/06/14 00:19:33;;;;;;;8.60;2.30;;;;;;;11.95;78.60;100899.80;1689549;82;29379;-84
2021/06/14 00:21:59;;;;;;;10.98;3.00;;;;;;;11.94;78.82;100892.91;1691548;82;34647;-84
2021/06/14 00:24:25;;;;;;;8.95;2.10;;;;;;;11.91;78.69;100891.92;1685905;82;25559;-84
2021/06/14 00:26:51;;;;;;;8.23;2.65;;;;;;;11.90;78.74;100891.60;1689387;82;25288;-84
2021/06/14 00:29:16;;;;;;;4.90;2.17;;;;;;;11.89;78.83;100899.11;1683120;82;32869;-84
2021/06/14 00:31:42;;;;;;;9.07;2.60;;;;;;;11.90;78.86;100900.77;1682452;82;29384;-83
2021/06/14 00:34:08;;;;;;;8.68;2.42;;;;;;;11.90;78.80;100900.27;1699930;82;34614;-76
2021/06/14 00:36:34;;;;;;;8.15;2.55;;;;;;;11.92;78.84;100902.72;1691892;83;25157;-76
2021/06/14 00:39:00;;;;;;;16.82;2.52;;;;;;;11.93;78.77;100903.88;1690468;82;25361;-76
2021/06/14 00:41:26;;;;;;;8.03;3.20;;;;;;;11.91;78.71;100900.59;1693783;83;32393;-75
2021/06/14 00:43:52;;;;;;;10.77;2.87;;;;;;;11.87;78.81;100905.84;1698917;82;29261;-76
2021/06/14 00:46:18;;;;;;;10.38;2.10;;;;;;;11.86;78.89;100906.80;1698291;82;25715;-76
2021/06/14 00:48:45;;;;;;;7.97;2.77;;;;;;;11.85;79.05;100901.21;1669351;84;25280;-76
2021/06/14 00:51:12;;;;;;;5.75;2.15;;;;;;;11.85;78.95;100899.09;1695754;82;26422;-76
2021/06/14 00:53:42;;;;;;;7.97;2.70;;;;;;;11.84;78.89;100894.34;1691125;83;25181;-76
2021/06/14 00:56:13;;;;;;;5.78;2.83;;;;;;;11.83;78.97;100895.30;1690107;83;25684;-84
2021/06/14 00:58:41;;;;;;;5.53;2.33;;;;;;;11.77;78.97;100889.41;1699143;83;25210;-83
2021/06/14 01:01:08;;;;;;;7.90;2.42;;;;;;;11.76;79.26;100895.13;1700238;82;25178;-83
2021/06/14 01:03:36;;;;;;;9.53;2.52;;;;;;;11.76;79.21;100896.45;1692876;82;25707;-84
2021/06/14 01:06:05;;;;;;;8.33;2.45;;;;;;;11.75;79.08;100893.48;1693445;83;25754;-83
2021/06/14 01:08:34;;;;;;;7.07;2.90;;;;;;;11.75;79.30;100903.14;1686784;83;25670;-83
2021/06/14 01:11:06;;;;;;;10.72;2.83;;;;;;;11.75;79.18;100904.45;1693350;83;25753;-83
2021/06/14 01:14:00;;;;;;;6.50;2.42;;;;;;;11.75;79.16;100907.06;1684328;82;25693;-84
2021/06/14 01:16:46;;;;;;;6.95;2.58;;;;;;;11.72;79.15;100901.66;1692338;83;25982;-83
2021/06/14 01:19:51;;;;;;;5.62;2.22;;;;;;;11.70;79.22;100910.64;1693360;83;25203;-83
2021/06/14 01:22:50;;;;;;;6.33;1.77;;;;;;;11.67;79.30;100904.42;1694924;83;25190;-83
2021/06/14 01:25:29;;;;;;;5.87;2.40;;;;;;;11.67;79.53;100909.66;1697181;83;25681;-84
2021/06/14 01:27:57;;;;;;;6.95;2.62;;;;;;;11.63;79.48;100910.47;1686735;83;25731;-84
2021/06/14 01:30:30;;;;;;;8.75;3.00;;;;;;;11.62;79.54;100914.55;1696106;83;25698;-84
2021/06/14 01:32:58;;;;;;;8.15;2.45;;;;;;;11.61;79.50;100911.61;1699202;82;25835;-84
2021/06/14 01:35:37;;;;;;;6.30;2.33;;;;;;;11.59;79.64;100901.28;1695998;82;26019;-84
2021/06/14 01:38:07;;;;;;;8.95;2.72;;;;;;;11.57;79.72;100903.26;1690021;83;25251;-83
2021/06/14 01:40:34;;;;;;;7.42;2.27;;;;;;;11.56;79.57;100902.41;1695462;83;25608;-84
2021/06/14 01:43:08;;;;;;;11.48;2.65;;;;;;;11.58;79.71;100906.69;1688411;82;26414;-84
2021/06/14 01:45:40;;;;;;;10.85;2.70;;;;;;;11.57;79.61;100911.11;1686874;83;26000;-73
2021/06/14 01:48:08;;;;;;;6.50;2.22;;;;;;;11.55;79.71;100914.37;1692335;83;25642;-74
2021/06/14 01:50:35;;;;;;;8.38;2.42;;;;;;;11.53;79.60;100915.00;1691082;83;25646;-83
2021/06/14 01:53:03;;;;;;;5.42;2.50;;;;;;;11.49;79.74;100913.20;1672801;83;25741;-83
2021/06/14 01:55:30;;;;;;;9.90;2.40;;;;;;;11.49;79.81;100915.82;1688513;83;25591;-83
2021/06/14 01:57:58;;;;;;;5.12;2.12;;;;;;;11.49;79.80;100916.31;1690357;82;25582;-83
2021/06/14 02:00:27;;;;;;;10.35;3.22;;;;;;;11.52;79.86;100914.19;1687608;83;25228;-83
2021/06/14 02:02:55;;;;;;;6.90;2.37;;;;;;;11.50;79.77;100916.14;1698507;83;25221;-84
2021/06/14 02:05:29;;;;;;;7.65;2.50;;;;;;;11.49;79.84;100911.89;1689916;83;25760;-83
2021/06/14 02:07:57;;;;;;;8.73;2.72;;;;;;;11.47;79.91;100919.57;1703657;83;31864;-84
2021/06/14 02:10:24;;;;;;;7.83;2.65;;;;;;;11.42;79.88;100916.59;1703318;82;25674;-84
2021/06/14 02:12:52;;;;;;;8.90;2.80;;;;;;;11.41;79.96;100907.93;1682844;83;25672;-85
2021/06/14 02:19:14;;;;;;;8.83;2.52;;;;;;;11.40;80.13;100907.58;1688259;83;25874;-84
2021/06/14 02:21:45;;;;;;;12.98;2.40;;;;;;;11.36;80.07;100903.66;1691196;83;26593;-84
2021/06/14 02:24:13;;;;;;;9.43;2.95;;;;;;;11.30;80.15;100903.79;1695339;83;25776;-83
2021/06/14 02:26:42;;;;;;;11.30;2.55;;;;;;;11.29;80.37;100903.47;1678299;83;25743;-84
2021/06/14 02:29:08;;;;;;;10.10;3.60;;;;;;;11.28;80.37;100905.73;1686220;83;25825;-84
2021/06/14 02:31:35;;;;;;;9.85;2.65;;;;;;;11.26;80.43;100902.94;1691712;83;25146;-84
2021/06/14 02:34:04;;;;;;;8.28;2.50;;;;;;;11.25;80.42;100906.55;1697406;82;25578;-84
2021/06/14 02:36:31;;;;;;;8.05;2.40;;;;;;;11.24;80.45;100912.73;1693599;83;25771;-83
2021/06/14 02:39:03;;;;;;;6.62;2.47;;;;;;;11.23;80.43;100917.16;1699508;83;26455;-84
2021/06/14 02:41:31;;;;;;;9.40;2.90;;;;;;;11.22;80.53;100916.02;1690299;83;25645;-83
2021/06/14 02:44:04;;;;;;;6.45;2.62;;;;;;;11.23;80.55;100919.77;1685187;82;25630;-83
2021/06/14 02:46:26;;;;;;;11.15;3.02;;;;;;;11.21;80.59;100919.13;1687113;83;25721;-83
2021/06/14 02:48:53;;;;;;;8.35;2.92;;;;;;;11.18;80.51;100923.83;1691190;83;25717;-83
2021/06/14 02:51:20;;;;;;;7.67;3.15;;;;;;;11.17;80.67;100913.86;1693926;83;25650;-83
2021/06/14 02:54:03;;;;;;;14.47;3.80;;;;;;;11.18;80.80;100915.48;1709413;82;25177;-76
2021/06/14 02:56:19;;;;;;;7.25;2.30;;;;;;;11.19;80.80;100926.30;1706286;82;25791;-76
2021/06/14 02:58:48;;;;;;;5.40;2.72;;;;;;;11.21;80.78;100934.83;1716910;82;25661;-76
2021/06/14 03:01:15;;;;;;;;;;;;;;;11.21;80.81;100937.45;1686529;82;25896;-76
2021/06/14 03:03:43;;;;;;;6.70;2.75;;;;;;;11.21;80.76;100943.14;1713913;82;25655;-75
2021/06/14 03:06:15;;;;;;;7.70;2.90;;;;;;;11.20;80.79;100944.12;1707894;82;25951;-77
2021/06/14 03:08:43;;;;;;;8.58;2.98;;;;;;;11.18;80.87;100945.58;1715760;82;25702;-77
2021/06/14 03:11:10;;;;;;;6.47;2.83;;;;;;;11.18;80.92;100953.92;1716694;82;25921;-77
2021/06/14 03:13:40;;;;;;;6.35;2.70;;;;;;;11.19;81.03;100952.47;1718055;82;25670;-77
2021/06/14 03:16:06;;;;;;;9.48;2.58;;;;;;;11.19;80.99;100945.11;1718467;82;25708;-84
2021/06/14 03:18:33;;;;;;;9.50;3.22;;;;;;;11.20;81.06;100948.05;1714986;82;25196;-84
2021/06/14 03:21:00;;;;;;;8.08;3.17;;;;;;;11.17;81.14;100949.67;1706651;82;25603;-84
2021/06/14 03:23:26;;;;;;;7.17;2.85;;;;;;;11.16;81.20;100947.55;1712116;82;25517;-84
2021/06/14 03:25:52;;;;;;;7.13;2.80;;;;;;;11.13;81.32;100946.55;1710199;82;30846;-84
2021/06/14 03:28:19;;;;;;;10.13;3.33;;;;;;;11.16;81.48;100953.24;1705687;82;27416;-84
2021/06/14 03:30:45;;;;;;;9.53;2.92;;;;;;;11.18;81.54;100949.50;1686307;83;25702;-84
2021/06/14 03:33:15;;;;;;;8.40;2.95;;;;;;;11.19;81.55;100955.09;1715645;82;25726;-83
2021/06/14 03:35:42;;;;;;;;;;;;;;;11.17;81.58;100951.80;1728789;82;25633;-84
2021/06/14 03:38:08;;;;;;;8.33;2.60;;;;;;;11.19;81.72;100959.50;1707819;82;25651;-83
2021/06/14 03:40:34;;;;;;;8.33;3.00;;;;;;;11.15;81.75;100962.89;1715640;82;25736;-85
2021/06/14 03:43:03;;;;;;;8.35;3.42;;;;;;;11.16;81.96;100961.09;1709916;82;25197;-84
2021/06/14 03:45:30;;;;;;;10.03;3.98;;;;;;;11.20;82.01;100959.33;1711876;82;25200;-84
2021/06/14 03:47:57;;;;;;;12.98;3.22;;;;;;;11.26;81.97;100959.20;1703651;82;25617;-77
2021/06/14 03:50:24;;;;;;;6.17;3.00;;;;;;;11.31;81.92;100953.02;1714017;82;25197;-77
2021/06/14 03:52:50;;;;;;;7.03;3.12;;;;;;;11.35;81.88;100958.30;1709769;82;25396;-84
2021/06/14 03:55:17;;;;;;;5.22;2.75;;;;;;;11.41;81.96;100960.77;1714971;82;25226;-84
2021/06/14 03:57:43;;;;;;;8.65;2.92;;;;;;;11.45;81.90;100966.02;1722664;82;25581;-84
2021/06/14 04:00:13;;;;;;;9.13;3.30;;;;;;;11.49;81.90;100966.87;1717314;82;26136;-84
2021/06/14 04:02:43;;;;;;;11.53;3.20;;;;;;;11.54;81.85;100968.53;1703384;82;25228;-84
2021/06/14 04:05:12;;;;;;;6.30;2.83;;;;;;;11.62;81.87;100972.15;1709301;82;25313;-83
2021/06/14 04:07:52;;;;;;;11.08;4.87;;;;;;;11.65;81.67;100974.45;1627859;86;25687;-82
2021/06/14 04:10:18;;;;;;;9.73;3.22;;;;;;;11.71;81.65;100970.73;1624598;86;32404;-83
2021/06/14 04:12:43;;;;;;;7.73;3.07;;;;;;;11.78;81.70;100978.77;1626542;86;25920;-84
2021/06/14 04:15:10;;;;;;;7.97;3.23;;;;;;;11.83;81.50;100972.56;1627081;86;30054;-84
2021/06/14 04:17:36;;;;;;;12.18;3.35;;;;;;;11.88;81.67;100978.69;1627697;86;25767;-84
2021/06/14 04:20:06;;;;;;;7.05;2.75;;;;;;;11.96;81.62;100978.72;1627371;86;34600;-83
2021/06/14 04:22:32;;;;;;;;;;;;;;;12.03;81.34;100980.20;1622586;86;25232;-83
2021/06/14 04:24:58;;;;;;;8.43;3.27;;;;;;;12.04;81.26;100980.55;1599131;88;25828;-84
2021/06/14 04:27:23;;;;;;;9.63;3.40;;;;;;;12.08;81.39;100986.59;1564722;89;31000;-83
2021/06/14 04:29:49;;;;;;;9.67;3.43;;;;;;;12.16;81.35;100986.63;1596730;88;28109;-83
2021/06/14 04:32:15;;;;;;;7.00;2.70;;;;;;;12.24;81.27;100983.20;1566809;89;34743;-83
2021/06/14 04:34:42;;;;;;;11.22;3.65;;;;;;;12.30;81.22;100979.12;1598417;88;25665;-83
2021/06/14 04:37:08;;;;;;;8.60;3.77;;;;;;;12.35;80.96;100973.72;1560027;90;25557;-83
2021/06/14 04:39:34;;;;;;;7.83;3.43;;;;;;;12.39;80.76;100975.55;1609082;87;32041;-83
2021/06/14 04:42:01;;;;;;;8.55;3.75;;;;;;;12.44;80.76;100969.34;1607678;87;25240;-83
2021/06/14 04:44:26;;;;;;;7.55;3.10;;;;;;;12.48;80.66;100965.39;1663105;84;25682;-84
2021/06/14 04:46:52;;;;;;;10.23;3.02;;;;;;;12.55;80.93;100962.46;1675366;84;32622;-83
2021/06/14 04:49:18;;;;;;;8.80;3.25;;;;;;;12.63;80.80;100964.24;1679810;84;25596;-82
2021/06/14 04:51:44;;;;;;;7.40;3.57;;;;;;;12.66;80.52;100961.32;1685297;84;31367;-83
2021/06/14 04:54:10;;;;;;;7.93;2.90;;;;;;;12.73;80.53;100965.41;1666859;84;30222;-83
2021/06/14 04:56:36;;;;;;;9.73;3.80;;;;;;;12.78;80.53;100971.80;1668246;84;34712;-84
2021/06/14 04:59:01;;;;;;;8.05;3.15;;;;;;;12.86;80.58;100974.92;1659394;84;32822;-83
2021/06/14 05:01:27;;;;;;;14.33;3.30;;;;;;;12.93;80.48;100975.06;1665769;84;25619;-82
2021/06/14 05:03:55;;;;;;;7.60;3.20;;;;;;;12.98;80.43;100972.77;1677539;83;30994;-81
2021/06/14 05:06:21;;;;;;;10.00;3.08;;;;;;;13.01;80.22;100976.37;1672695;84;25191;-82
2021/06/14 05:08:47;;;;;;;8.03;3.02;;;;;;;13.06;80.22;100968.82;1673836;84;25191;-82
2021/06/14 05:11:13;;;;;;;10.78;3.00;;;;;;;13.16;80.31;100979.16;1668088;84;32285;-82
2021/06/14 05:13:39;;;;;;;7.50;3.10;;;;;;;13.25;80.33;100982.08;1668918;84;25492;-82
2021/06/14 05:16:05;;;;;;;8.23;3.40;;;;;;;13.31;80.16;100982.75;1665650;84;32861;-82
2021/06/14 05:18:30;;;;;;;11.63;3.45;;;;;;;13.42;80.20;100983.73;1666722;84;25679;-84
2021/06/14 05:20:56;;;;;;;8.65;3.60;;;;;;;13.49;80.02;100985.19;1676975;84;34655;-84
2021/06/14 05:23:23;;;;;;;6.53;3.17;;;;;;;13.54;79.78;100985.00;1687648;84;32414;-83
2021/06/14 05:25:49;;;;;;;8.70;3.37;;;;;;;13.61;79.81;100986.44;1665911;84;25508;-82
2021/06/14 05:28:14;;;;;;;7.87;2.70;;;;;;;13.69;79.71;100990.36;1660465;84;32885;-82
2021/06/14 05:30:40;;;;;;;13.30;3.12;;;;;;;13.78;79.33;100992.48;1661708;84;30138;-81
2021/06/14 05:33:06;;;;;;;9.30;2.27;;;;;;;13.83;79.10;100991.95;1652509;85;34769;-81
2021/06/14 05:35:32;;;;;;;7.75;2.98;;;;;;;13.85;78.64;100992.11;1638379;85;32439;-83
2021/06/14 05:37:58;;;;;;;7.28;2.77;;;;;;;13.87;78.46;100990.13;1646526;85;25559;-84
2021/06/14 05:40:24;;;;;;;7.78;2.98;;;;;;;13.94;78.71;100986.31;1642019;85;32797;-85
2021/06/14 05:42:50;;;;;;;8.53;3.30;;;;;;;14.03;78.72;100985.30;1644740;85;31241;-84
2021/06/14 05:45:16;;;;;;;8.90;2.98;;;;;;;14.11;78.18;100987.08;1639397;85;34710;-84
2021/06/14 05:47:42;;;;;;;8.68;2.98;;;;;;;14.14;78.45;100994.11;1639514;85;25659;-84
2021/06/14 05:50:10;;;;;;;5.87;3.15;;;;;;;14.23;78.17;100988.30;1640886;85;25989;-84
2021/06/14 05:52:36;;;;;;;8.20;2.70;;;;;;;14.33;78.08;100988.09;1644857;85;25501;-83
2021/06/14 05:55:04;;;;;;;9.68;2.65;;;;;;;14.33;77.09;100986.28;1639946;85;25615;-84
2021/06/14 05:57:30;;;;;;;11.15;3.22;;;;;;;14.37;77.52;100994.13;1641231;85;25632;-83
2021/06/14 05:59:56;;;;;;;6.47;2.87;;;;;;;14.44;76.85;100993.77;1641288;85;25196;-84
2021/06/14 06:02:21;;;;;;;6.50;2.60;;;;;;;14.52;77.02;100994.71;1640279;85;26096;-84
2021/06/14 06:04:47;;;;;;;9.53;2.40;;;;;;;14.59;76.69;100991.22;1647193;85;34033;-85
2021/06/14 06:07:13;;;;;;;10.48;2.85;;;;;;;14.67;76.38;100986.39;1644765;85;31776;-84
2021/06/14 06:09:39;;;;;;;5.85;2.00;;;;;;;14.76;76.48;100985.35;1641478;85;35233;-84
2021/06/14 06:12:06;;;;;;;8.50;2.25;;;;;;;14.84;75.77;100987.08;1641203;85;32687;-83
2021/06/14 06:14:32;;;;;;;6.20;2.20;;;;;;;14.87;75.25;100990.19;1643153;85;25601;-84
2021/06/14 06:16:58;;;;;;;7.17;2.42;;;;;;;14.94;74.75;100982.39;1640766;85;32021;-84
2021/06/14 06:19:24;;;;;;;6.33;2.10;;;;;;;14.99;74.94;100977.41;1655415;85;31712;-84
2021/06/14 06:21:50;;;;;;;11.38;2.25;;;;;;;15.07;74.69;100972.06;1665234;85;34733;-84
2021/06/14 06:24:16;;;;;;;11.55;2.77;;;;;;;15.13;74.26;100977.11;1654724;85;32297;-77
2021/06/14 06:26:41;;;;;;;4.85;2.00;;;;;;;15.20;74.55;100980.67;1715755;82;25856;-78
2021/06/14 06:29:07;;;;;;;6.72;2.40;;;;;;;15.30;73.00;100983.03;1704493;82;32760;-77
2021/06/14 06:31:34;;;;;;;7.15;2.60;;;;;;;15.31;73.46;100977.59;1703578;82;31217;-80
2021/06/14 06:33:59;;;;;;;4.00;1.85;;;;;;;15.42;73.91;100980.78;1701003;82;25788;-81
2021/06/14 06:36:25;;;;;;;6.28;2.42;;;;;;;15.49;71.96;100977.22;1701507;82;32448;-82
2021/06/14 06:38:51;;;;;;;5.92;2.10;;;;;;;15.52;72.02;100987.89;1717307;82;25534;-89
2021/06/14 06:41:17;;;;;;;5.67;2.17;;;;;;;15.58;72.37;100982.39;1708756;82;25841;-82
2021/06/14 06:43:43;;;;;;;9.38;2.50;;;;;;;15.69;72.25;100984.12;1716587;82;31096;-80
2021/06/14 06:46:12;;;;;;;5.62;2.27;;;;;;;15.78;71.90;100978.75;1707728;82;34735;-87
2021/06/14 06:48:38;;;;;;;5.60;2.27;;;;;;;15.81;70.79;100978.38;1700109;82;25643;-81
2021/06/14 06:51:04;;;;;;;5.30;2.20;;;;;;;15.83;70.91;100978.52;1697021;82;26378;-82
2021/06/14 06:53:30;;;;;;;4.60;1.65;;;;;;;15.86;69.58;100978.65;1695883;82;26393;-81
2021/06/14 06:55:57;;;;;;;7.22;1.92;;;;;;;15.90;68.95;100984.66;1685159;83;31312;-83
2021/06/14 06:58:23;;;;;;;6.70;1.92;;;;;;;15.96;69.33;100981.82;1692907;82;25701;-85
2021/06/14 07:00:51;;;;;;;5.08;2.02;;;;;;;16.09;69.24;100983.27;1681971;83;25661;-83
2021/06/14 07:03:18;;;;;;;3.40;1.62;;;;;;;16.20;69.66;100980.64;1679461;82;25587;-82
2021/06/14 07:05:46;;;;;;;6.08;1.90;;;;;;;16.30;68.83;100979.84;1701115;82;25679;-85
2021/06/14 07:08:15;;;;;;;4.12;1.82;;;;;;;16.38;68.16;100984.19;1697337;82;26038;-90
2021/06/14 07:10:43;;;;;;;4.33;2.45;;;;;;;16.44;68.14;100974.20;1699139;82;25704;-84
2021/06/14 07:13:09;;;;;;;3.08;1.47;;;;;;;16.52;67.98;100976.71;1703822;82;25844;-86
2021/06/14 07:15:36;;;;;;;5.50;1.77;;;;;;;16.60;67.94;100969.17;1702279;82;25624;-84
2021/06/14 07:18:03;;;;;;;4.65;1.98;;;;;;;16.62;66.05;100973.27;1697838;82;25257;-83
2021/06/14 07:20:29;;;;;;;6.33;1.60;;;;;;;16.65;66.63;100976.02;1703297;82;25680;-83
2021/06/14 07:22:56;;;;;;;4.78;1.70;;;;;;;16.72;65.65;100969.47;1700575;82;25241;-82
2021/06/14 07:25:23;;;;;;;10.35;2.37;;;;;;;16.81;66.35;100973.66;1684612;82;25262;-82
2021/06/14 07:27:49;;;;;;;5.30;2.30;;;;;;;16.91;66.51;100978.59;1696054;82;25571;-82
2021/06/14 07:30:17;;;;;;;5.17;1.90;;;;;;;16.94;64.55;100977.73;1696660;82;33096;-83
2021/06/14 07:32:44;;;;;;;5.87;1.90;;;;;;;16.85;64.15;100961.69;1701465;82;25181;-83
2021/06/14 07:35:11;;;;;;;7.72;1.77;;;;;;;16.90;63.96;100972.50;1696609;82;25690;-82
2021/06/14 07:37:38;;;;;;;3.77;1.70;;;;;;;16.89;64.63;100974.84;1697580;82;26291;-84
2021/06/14 07:40:07;;;;;;;5.65;1.60;;;;;;;16.94;64.17;100971.12;1698243;82;25692;-84
2021/06/14 07:42:33;;;;;;;3.50;1.90;;;;;;;16.98;64.24;100983.44;1696960;82;25190;-82
2021/06/14 07:44:59;;;;;;;4.90;1.70;;;;;;;17.05;64.48;100982.48;1697370;82;25791;-80
2021/06/14 07:47:25;;;;;;;3.67;1.72;;;;;;;17.17;64.74;100976.66;1699328;82;25473;-84
2021/06/14 07:49:51;;;;;;;6.80;1.85;;;;;;;17.25;63.93;100979.16;1698613;82;25753;-80
2021/06/14 07:52:17;;;;;;;4.75;1.90;;;;;;;17.26;64.01;100981.58;1694090;82;26026;-85
2021/06/14 07:54:43;;;;;;;5.60;1.90;;;;;;;17.34;63.38;100986.41;1706692;82;32667;-81
2021/06/14 07:57:09;;;;;;;5.92;1.65;;;;;;;17.37;64.34;100981.55;1684166;82;31295;-81
2021/06/14 07:59:35;;;;;;;5.95;1.77;;;;;;;17.50;63.48;100996.67;1696594;82;34688;-80
2021/06/14 08:02:01;;;;;;;5.97;1.90;;;;;;;17.53;62.94;100987.03;1699864;82;25212;-81
2021/06/14 08:04:28;;;;;;;5.87;2.25;;;;;;;17.63;63.57;100986.17;1701430;82;25709;-81
2021/06/14 08:06:54;;;;;;;5.05;1.70;;;;;;;17.73;62.75;100990.61;1699830;82;25244;-83
2021/06/14 08:09:26;;;;;;;6.25;2.47;;;;;;;17.83;63.78;100985.48;1696325;82;31215;-80
2021/06/14 08:11:47;;;;;;;3.60;1.37;;;;;;;17.90;63.25;100979.20;1697537;82;25827;-81
2021/06/14 08:14:13;;;;;;;4.55;1.98;;;;;;;17.93;61.04;100982.77;1702380;82;32464;-80
2021/06/14 08:16:41;;;;;;;5.62;1.67;;;;;;;17.91;62.15;100986.63;1697654;82;26557;-81
2021/06/14 08:19:12;;;;;;;5.67;2.05;;;;;;;17.89;61.45;100985.49;1696031;82;25683;-80
2021/06/14 08:26:54;;;;;;;8.83;2.17;;;;;;;18.01;61.31;100981.79;1700812;82;25697;-87
2021/06/14 08:29:20;;;;;;;3.37;1.70;;;;;;;18.10;60.90;100983.74;1705108;82;25650;-82
2021/06/14 08:31:46;;;;;;;4.85;2.00;;;;;;;18.16;61.36;100980.30;1708672;82;33249;-83
2021/06/14 08:34:12;;;;;;;4.50;1.90;;;;;;;18.23;61.12;100977.17;1702611;82;31135;-86
2021/06/14 08:36:40;;;;;;;5.53;1.72;;;;;;;18.31;60.06;100974.33;1707394;82;25716;-82
2021/06/14 08:39:12;;;;;;;3.47;1.65;;;;;;;18.33;59.73;100978.92;1696365;82;25706;-82
2021/06/14 08:41:41;;;;;;;5.78;1.47;;;;;;;18.39;60.25;100983.92;1704086;82;26382;-81
2021/06/14 08:44:10;;;;;;;2.58;1.40;;;;;;;18.51;59.56;100985.46;1726699;82;25676;-85
2021/06/14 08:46:36;;;;;;;4.17;1.37;;;;;;;18.57;57.84;100976.70;1693044;82;25794;-80
2021/06/14 08:49:03;;;;;;;2.30;1.35;;;;;;;18.69;58.84;100972.93;1695102;82;26256;-84
2021/06/14 08:51:29;;;;;;;3.50;1.55;;;;;;;18.76;56.60;100975.11;1703063;82;25717;-83
2021/06/14 08:53:56;;;;;;;6.72;1.80;;;;;;;18.76;56.69;100971.14;1696554;82;25975;-84
2021/06/14 08:56:25;;;;;;;5.20;1.60;;;;;;;18.74;57.47;100974.02;1688483;83;25226;-81
2021/06/14 08:58:53;;;;;;;4.35;1.50;;;;;;;18.76;58.07;100973.27;1690273;82;26499;-79
2021/06/14 09:01:22;;;;;;;5.45;1.75;;;;;;;18.82;57.65;100975.13;1685888;83;25259;-80
2021/06/14 09:03:48;;;;;;;4.78;1.50;;;;;;;18.93;57.32;100974.19;1684083;83;25177;-83
2021/06/14 09:06:14;;;;;;;6.15;1.85;;;;;;;18.95;55.57;100976.94;1684482;83;25732;-81
2021/06/14 09:08:40;;;;;;;3.90;1.47;;;;;;;18.96;56.93;100967.15;1680853;83;32736;-82
2021/06/14 09:11:10;;;;;;;5.75;1.55;;;;;;;19.02;57.32;100975.63;1688171;83;25239;-80
2021/06/14 09:13:37;;;;;;;;;;;;;;;19.09;56.93;100968.46;1695124;83;25447;-86
2021/06/14 09:16:09;;;;;;;3.37;1.27;;;;;;;19.12;56.43;100966.72;1688328;82;25222;-81
2021/06/14 09:18:39;;;;;;;6.92;1.37;;;;;;;19.22;55.81;100976.91;1678097;83;26191;-82
2021/06/14 09:21:12;;;;;;;5.78;1.50;;;;;;;19.27;55.55;100967.83;1686423;83;25877;-81
2021/06/14 09:23:55;;;;;;;3.22;1.20;;;;;;;19.34;54.96;100975.76;1690015;83;25778;-79
2021/06/14 09:26:32;;;;;;;2.83;1.17;;;;;;;19.34;53.77;100971.78;1696979;82;25858;-77
2021/06/14 09:29:14;;;;;;;3.72;1.22;;;;;;;19.28;53.13;100969.45;1698476;83;25880;-81
2021/06/14 09:31:45;;;;;;;2.95;1.30;;;;;;;19.34;52.28;100963.83;1698637;83;26512;-81
2021/06/14 09:34:12;;;;;;;4.85;1.47;;;;;;;19.40;53.82;100965.16;1684219;83;25241;-83
2021/06/14 09:36:39;;;;;;;2.87;1.50;;;;;;;19.51;53.32;100959.20;1691814;83;25589;-90
2021/06/14 09:39:21;;;;;;;1.75;1.20;;;;;;;19.59;53.59;100951.53;1677965;83;25266;-82
2021/06/14 09:41:52;;;;;;;5.03;1.75;;;;;;;19.70;54.58;100965.48;1676441;83;25313;-82
2021/06/14 09:44:32;;;;;;;2.37;1.22;;;;;;;19.81;54.03;100969.32;1682803;83;25812;-83
2021/06/14 09:47:09;;;;;;;5.83;1.52;;;;;;;19.82;53.08;100967.48;1682988;83;25263;-81
2021/06/14 09:49:36;;;;;;;5.50;1.62;;;;;;;19.84;53.37;100954.82;1686277;83;25670;-82
2021/06/14 09:52:05;;;;;;;4.83;1.50;;;;;;;19.79;52.68;100964.73;1679734;83;25751;-83
2021/06/14 09:54:34;;;;;;;3.15;1.50;;;;;;;19.72;52.18;100964.77;1685577;83;25213;-83
2021/06/14 09:57:04;;;;;;;5.10;1.43;;;;;;;19.69;52.31;100956.41;1681946;82;26147;-82
2021/06/14 09:59:40;;;;;;;2.55;1.30;;;;;;;19.70;52.65;100951.41;1678839;83;25714;-81
2021/06/14 10:02:16;;;;;;;3.15;1.20;;;;;;;19.74;52.08;100952.61;1681249;83;25572;-78
2021/06/14 10:04:38;;;;;;;2.87;1.30;;;;;;;19.70;50.55;100954.88;1678357;83;25211;-81
2021/06/14 10:07:13;;;;;;;1.75;1.10;;;;;;;19.74;52.70;100958.72;1675304;83;25632;-82
2021/06/14 10:09:48;;;;;;;6.17;1.20;;;;;;;19.91;52.79;100947.11;1670249;83;26364;-78
2021/06/14 10:12:26;;;;;;;4.35;1.30;;;;;;;19.99;50.85;100951.87;1686481;83;25808;-78
2021/06/14 10:15:00;;;;;;;5.15;1.85;;;;;;;19.98;49.35;100948.41;1696491;83;26588;-81
2021/06/14 10:17:38;;;;;;;8.18;2.20;;;;;;;20.07;51.56;100945.80;1686898;83;25326;-79
2021/06/14 10:20:29;;;;;;;4.30;1.70;;;;;;;20.20;51.17;100939.60;1682202;83;25192;-76
2021/06/14 10:22:57;;;;;;;;;;;;;;;20.31;51.52;100933.60;1690412;83;26612;-79
2021/06/14 10:25:25;;;;;;;2.98;1.30;;;;;;;20.48;50.96;100933.88;1681073;83;25808;-78
2021/06/14 10:27:52;;;;;;;2.55;1.40;;;;;;;20.48;52.06;100935.20;1682320;83;25192;-80
2021/06/14 10:30:21;;;;;;;5.08;1.30;;;;;;;20.58;50.32;100936.90;1682391;83;25768;-80
2021/06/14 10:32:48;;;;;;;2.72;1.47;;;;;;;20.56;49.88;100940.80;1682642;83;25723;-79
2021/06/14 10:35:18;;;;;;;2.85;1.40;;;;;;;20.51;49.91;100940.08;1674735;83;26607;-79
2021/06/14 10:37:48;;;;;;;6.35;1.37;;;;;;;20.57;51.52;100938.44;1684133;83;25235;-80
2021/06/14 10:40:25;;;;;;;3.08;1.42;;;;;;;20.74;50.41;100932.89;1679383;83;25463;-80
2021/06/14 10:42:53;;;;;;;3.42;1.35;;;;;;;20.80;50.24;100930.68;1685866;83;25710;-80
2021/06/14 10:45:27;;;;;;;3.72;1.30;;;;;;;20.85;50.44;100930.03;1690577;83;25202;-83
2021/06/14 10:47:55;;;;;;;4.90;1.95;;;;;;;20.88;50.08;100927.45;1682255;83;25603;-83
2021/06/14 10:50:25;;;;;;;4.42;1.65;;;;;;;21.00;52.04;100919.84;1684501;82;26423;-85
2021/06/14 10:52:50;;;;;;;;;;;;;;;21.16;50.70;100923.78;1676664;83;26141;-87
2021/06/14 10:55:26;;;;;;;3.37;1.00;;;;;;;21.04;49.50;100925.55;1679192;83;25683;-81
2021/06/14 10:57:53;;;;;;;2.72;1.27;;;;;;;20.97;50.04;100926.94;1673201;83;25727;-83
2021/06/14 11:00:32;;;;;;;2.65;1.20;;;;;;;20.97;50.47;100912.84;1692217;83;25650;-79
2021/06/14 11:03:02;;;;;;;10.70;2.20;;;;;;;21.03;50.06;100912.79;1683959;83;25695;-78
2021/06/14 11:05:35;;;;;;;5.25;1.40;;;;;;;21.15;50.39;100920.03;1682525;83;25569;-81
2021/06/14 11:08:20;;;;;;;3.67;1.42;;;;;;;21.34;51.79;100911.53;1690479;82;26422;-82
2021/06/14 11:11:07;;;;;;;2.58;1.12;;;;;;;21.54;49.56;100913.97;1679199;83;25772;-81
2021/06/14 11:13:37;;;;;;;7.72;1.50;;;;;;;21.46;47.17;100911.91;1680663;83;25591;-80
2021/06/14 11:16:06;;;;;;;4.62;1.32;;;;;;;21.40;49.06;100916.80;1682136;83;25713;-80
2021/06/14 11:18:33;;;;;;;2.95;1.15;;;;;;;21.43;48.29;100908.89;1687248;83;25662;-81
2021/06/14 11:21:20;;;;;;;3.60;1.32;;;;;;;21.45;48.37;100906.82;1690393;83;25757;-78
2021/06/14 11:23:48;;;;;;;2.27;1.40;;;;;;;21.48;46.94;100903.19;1687029;83;26386;-79
2021/06/14 11:26:30;;;;;;;4.45;1.35;;;;;;;21.47;47.53;100903.40;1682609;83;26460;-80
2021/06/14 11:28:59;;;;;;;1.80;1.17;;;;;;;21.45;47.88;100902.31;1685964;83;25946;-80
2021/06/14 11:31:30;;;;;;;4.17;1.27;;;;;;;21.53;49.00;100895.88;1678174;83;25216;-81
2021/06/14 11:34:01;;;;;;;3.02;1.25;;;;;;;21.59;47.82;100886.19;1678307;83;25619;-83
2021/06/14 11:36:30;;;;;;;3.45;1.10;;;;;;;21.64;48.13;100894.31;1688538;83;25694;-76
2021/06/14 11:39:00;;;;;;;5.00;1.30;;;;;;;21.67;46.91;100892.00;1679462;82;26128;-78
2021/06/14 11:41:34;;;;;;;8.35;1.30;;;;;;;21.62;47.26;100877.23;1677907;83;26046;-74
2021/06/14 11:44:29;;;;;;;2.55;1.17;;;;;;;21.68;46.88;100873.66;1679799;83;25690;-79